createdAt,value
2023-04-02T00:00:24.556Z,19.40
2023-04-02T00:01:39.542Z,19.30
2023-04-02T00:02:48.475Z,19.30
2023-04-02T00:03:54.127Z,19.40
2023-04-02T00:05:37.176Z,19.40
2023-04-02T00:06:44.896Z,19.40
2023-04-02T00:07:50.621Z,19.40
2023-04-02T00:08:56.265Z,19.40
2023-04-02T00:09:59.141Z,19.40
2023-04-02T00:11:02.330Z,19.40
2023-04-02T00:12:18.909Z,19.50
2023-04-02T00:13:29.817Z,19.50
2023-04-02T00:14:34.314Z,19.50
2023-04-02T00:15:38.823Z,19.40
2023-04-02T00:16:41.632Z,19.40
2023-04-02T00:17:43.993Z,19.40
2023-04-02T00:18:53.842Z,19.40
2023-04-02T00:20:07.003Z,19.40
2023-04-02T00:21:26.782Z,19.40
2023-04-02T00:22:34.128Z,19.40
2023-04-02T00:23:42.575Z,19.40
2023-04-02T00:24:45.089Z,19.40
2023-04-02T00:25:47.536Z,19.40
2023-04-02T00:26:51.868Z,19.30
2023-04-02T00:27:57.324Z,19.30
2023-04-02T00:29:01.999Z,19.30
2023-04-02T00:30:05.006Z,19.30
2023-04-02T00:31:10.923Z,19.30
2023-04-02T00:32:23.022Z,19.40
2023-04-02T00:33:28.561Z,19.40
2023-04-02T00:34:34.991Z,19.30
2023-04-02T00:35:39.468Z,19.40
2023-04-02T00:36:44.238Z,19.30
2023-04-02T00:37:46.745Z,19.30
2023-04-02T00:38:49.401Z,19.30
2023-04-02T00:40:07.018Z,19.30
2023-04-02T00:41:19.548Z,19.30
2023-04-02T00:42:25.191Z,19.30
2023-04-02T00:43:30.590Z,19.20
2023-04-02T00:44:37.887Z,19.20
2023-04-02T00:45:41.485Z,19.20
2023-04-02T00:46:49.465Z,19.30
2023-04-02T00:47:52.683Z,19.30
2023-04-02T00:49:15.058Z,19.40
2023-04-02T00:50:30.061Z,19.40
2023-04-02T00:51:38.681Z,19.30
2023-04-02T00:52:42.972Z,19.30
2023-04-02T00:53:47.733Z,19.30
2023-04-02T00:54:56.724Z,19.30
2023-04-02T00:55:59.377Z,19.30
2023-04-02T00:57:02.062Z,19.30
2023-04-02T00:58:34.460Z,19.30
2023-04-02T00:59:48.924Z,19.30
2023-04-02T01:00:53.076Z,19.30
2023-04-02T01:02:20.782Z,19.30
2023-04-02T01:03:29.825Z,19.30
2023-04-02T01:04:34.809Z,19.20
2023-04-02T01:05:38.313Z,19.30
2023-04-02T01:06:43.787Z,19.20
2023-04-02T01:08:12.847Z,19.20
2023-04-02T01:09:32.969Z,19.20
2023-04-02T01:11:02.070Z,19.20
2023-04-02T01:12:19.418Z,19.20
2023-04-02T01:13:43.514Z,19.20
2023-04-02T01:14:55.389Z,19.20
2023-04-02T01:16:23.059Z,19.20
2023-04-02T01:18:02.886Z,19.20
2023-04-02T01:19:18.725Z,19.20
2023-04-02T01:20:46.994Z,19.20
2023-04-02T01:22:08.105Z,19.10
2023-04-02T01:23:21.031Z,19.20
2023-04-02T01:24:29.800Z,19.20
2023-04-02T01:25:38.842Z,19.20
2023-04-02T01:27:19.703Z,19.20
2023-04-02T01:28:35.321Z,19.10
2023-04-02T01:29:42.130Z,19.10
2023-04-02T01:30:46.521Z,19.10
2023-04-02T01:31:50.687Z,19.10
2023-04-02T01:32:54.203Z,19.10
2023-04-02T01:33:57.188Z,19.10
2023-04-02T01:34:59.829Z,19.10
2023-04-02T01:36:14.543Z,19.10
2023-04-02T01:38:14.148Z,19.10
2023-04-02T01:39:54.386Z,19.10
2023-04-02T01:41:13.825Z,19.10
2023-04-02T01:42:41.552Z,19.10
2023-04-02T01:43:57.240Z,19.10
2023-04-02T01:45:07.987Z,19.20
2023-04-02T01:46:33.695Z,19.10
2023-04-02T01:47:37.610Z,19.10
2023-04-02T01:48:40.103Z,19.20
2023-04-02T01:49:44.042Z,19.20
2023-04-02T01:50:49.770Z,19.20
2023-04-02T01:51:56.529Z,19.20
2023-04-02T01:53:03.804Z,19.20
2023-04-02T01:54:07.731Z,19.20
2023-04-02T01:55:15.023Z,19.20
2023-04-02T01:56:17.872Z,19.20
2023-04-02T01:57:20.869Z,19.20
2023-04-02T01:58:26.572Z,19.20
2023-04-02T01:59:33.437Z,19.20
2023-04-02T02:00:45.003Z,19.20
2023-04-02T02:02:11.106Z,19.20
2023-04-02T02:03:16.616Z,19.20
2023-04-02T02:04:19.482Z,19.20
2023-04-02T02:05:23.207Z,19.20
2023-04-02T02:06:27.190Z,19.20
2023-04-02T02:07:31.376Z,18.80
2023-04-02T02:08:39.029Z,18.50
2023-04-02T02:09:44.217Z,18.50
2023-04-02T02:10:49.373Z,18.40
2023-04-02T02:11:52.435Z,18.40
2023-04-02T02:12:56.292Z,18.40
2023-04-02T02:14:01.254Z,18.30
2023-04-02T02:15:04.344Z,18.30
2023-04-02T02:16:07.425Z,18.30
2023-04-02T02:17:15.610Z,18.20
2023-04-02T02:18:24.773Z,18.20
2023-04-02T02:19:42.404Z,18.10
2023-04-02T02:20:44.818Z,18.20
2023-04-02T02:21:53.977Z,18.10
2023-04-02T02:22:57.496Z,18.20
2023-04-02T02:24:02.383Z,18.10
2023-04-02T02:25:11.080Z,18.10
2023-04-02T02:26:14.525Z,18.10
2023-04-02T02:27:23.349Z,18.10
2023-04-02T02:28:36.237Z,18.00
2023-04-02T02:29:41.803Z,18.00
2023-04-02T02:30:56.328Z,18.00
2023-04-02T02:32:00.405Z,17.90
2023-04-02T02:33:08.642Z,17.90
2023-04-02T02:34:21.284Z,17.90
2023-04-02T02:35:39.041Z,17.90
2023-04-02T02:36:54.908Z,17.90
2023-04-02T02:38:13.020Z,17.90
2023-04-02T02:39:33.833Z,17.90
2023-04-02T02:40:43.550Z,17.90
2023-04-02T02:42:03.074Z,17.90
2023-04-02T02:43:10.516Z,17.90
2023-04-02T02:44:20.651Z,17.80
2023-04-02T02:45:27.847Z,17.80
2023-04-02T02:46:32.813Z,17.80
2023-04-02T02:47:37.434Z,17.80
2023-04-02T02:48:42.679Z,17.80
2023-04-02T02:49:51.276Z,17.80
2023-04-02T02:50:57.176Z,17.80
2023-04-02T02:52:08.483Z,17.70
2023-04-02T02:53:23.965Z,17.70
2023-04-02T02:54:31.479Z,17.70
2023-04-02T02:55:37.021Z,17.70
2023-04-02T02:57:09.957Z,17.80
2023-04-02T02:58:20.208Z,17.70
2023-04-02T02:59:54.492Z,17.70
2023-04-02T03:00:57.629Z,17.70
2023-04-02T03:02:03.713Z,17.70
2023-04-02T03:03:10.611Z,17.70
2023-04-02T03:04:20.830Z,17.70
2023-04-02T03:05:26.821Z,17.70
2023-04-02T03:06:32.724Z,17.80
2023-04-02T03:07:37.319Z,17.80
2023-04-02T03:09:01.991Z,17.70
2023-04-02T03:10:19.483Z,17.70
2023-04-02T03:11:42.921Z,17.70
2023-04-02T03:12:59.790Z,17.70
2023-04-02T03:14:15.833Z,17.70
2023-04-02T03:15:41.922Z,17.70
2023-04-02T03:16:50.687Z,17.70
2023-04-02T03:18:20.505Z,17.70
2023-04-02T03:19:28.611Z,17.70
2023-04-02T03:20:48.364Z,17.70
2023-04-02T03:22:08.590Z,17.70
2023-04-02T03:23:32.856Z,17.70
2023-04-02T03:24:56.320Z,17.60
2023-04-02T03:26:06.727Z,17.60
2023-04-02T03:27:18.375Z,17.60
2023-04-02T03:28:26.062Z,17.60
2023-04-02T03:29:34.804Z,17.60
2023-04-02T03:30:57.411Z,17.60
2023-04-02T03:32:28.558Z,17.50
2023-04-02T03:33:38.725Z,17.50
2023-04-02T03:35:02.914Z,17.50
2023-04-02T03:36:14.757Z,17.50
2023-04-02T03:37:48.675Z,17.50
2023-04-02T03:38:59.610Z,17.50
2023-04-02T03:40:15.754Z,17.50
2023-04-02T03:41:38.684Z,17.40
2023-04-02T03:43:00.845Z,17.40
2023-04-02T03:44:11.471Z,17.40
2023-04-02T03:45:24.756Z,17.50
2023-04-02T03:46:35.434Z,17.50
2023-04-02T03:48:13.350Z,17.40
2023-04-02T03:49:46.502Z,17.50
2023-04-02T03:50:58.310Z,17.40
2023-04-02T03:52:15.740Z,17.40
2023-04-02T03:53:22.519Z,17.40
2023-04-02T03:54:25.404Z,17.40
2023-04-02T03:55:31.521Z,17.40
2023-04-02T03:56:40.175Z,17.40
2023-04-02T03:58:18.742Z,17.40
2023-04-02T03:59:47.503Z,17.40
2023-04-02T04:01:17.496Z,17.40
2023-04-02T04:02:26.334Z,17.40
2023-04-02T04:03:57.465Z,17.40
2023-04-02T04:05:01.978Z,17.40
2023-04-02T04:06:15.915Z,17.40
2023-04-02T04:07:31.026Z,17.30
2023-04-02T04:08:42.497Z,17.30
2023-04-02T04:09:48.494Z,17.30
2023-04-02T04:10:53.624Z,17.30
2023-04-02T04:12:22.273Z,17.30
2023-04-02T04:13:40.072Z,17.30
2023-04-02T04:14:49.464Z,17.30
2023-04-02T04:16:03.458Z,17.30
2023-04-02T04:17:09.409Z,17.30
2023-04-02T04:18:34.654Z,17.30
2023-04-02T04:19:46.196Z,17.30
2023-04-02T04:20:58.449Z,17.30
2023-04-02T04:22:29.979Z,17.30
2023-04-02T04:23:40.952Z,17.20
2023-04-02T04:24:47.680Z,17.20
2023-04-02T04:26:19.822Z,17.20
2023-04-02T04:27:52.769Z,17.20
2023-04-02T04:29:18.465Z,17.20
2023-04-02T04:30:25.814Z,17.20
2023-04-02T04:31:58.842Z,17.20
2023-04-02T04:33:22.342Z,17.30
2023-04-02T04:34:42.379Z,17.40
2023-04-02T04:35:54.382Z,17.50
2023-04-02T04:37:02.035Z,17.50
2023-04-02T04:38:21.852Z,17.60
2023-04-02T04:39:49.585Z,17.40
2023-04-02T04:40:57.484Z,17.30
2023-04-02T04:42:04.863Z,17.40
2023-04-02T04:43:17.830Z,17.40
2023-04-02T04:44:39.472Z,17.40
2023-04-02T04:45:50.796Z,17.40
2023-04-02T04:47:14.820Z,17.30
2023-04-02T04:48:36.519Z,17.30
2023-04-02T04:49:47.694Z,17.40
2023-04-02T04:51:00.905Z,17.40
2023-04-02T04:52:49.140Z,17.40
2023-04-02T04:53:55.105Z,17.40
2023-04-02T04:55:01.001Z,17.30
2023-04-02T04:56:18.443Z,17.20
2023-04-02T04:57:43.563Z,17.20
2023-04-02T04:59:18.278Z,17.20
2023-04-02T05:00:48.633Z,17.20
2023-04-02T05:02:28.793Z,17.20
2023-04-02T05:03:41.095Z,17.10
2023-04-02T05:04:50.325Z,17.00
2023-04-02T05:05:54.263Z,16.90
2023-04-02T05:07:02.880Z,16.90
2023-04-02T05:08:20.993Z,16.70
2023-04-02T05:09:57.979Z,16.70
2023-04-02T05:11:05.622Z,16.80
2023-04-02T05:12:35.949Z,16.80
2023-04-02T05:13:54.123Z,16.70
2023-04-02T05:15:02.415Z,16.60
2023-04-02T05:16:22.632Z,16.60
2023-04-02T05:17:46.337Z,16.50
2023-04-02T05:18:52.767Z,16.50
2023-04-02T05:20:26.382Z,16.60
2023-04-02T05:21:53.644Z,16.70
2023-04-02T05:23:10.311Z,16.70
2023-04-02T05:24:33.217Z,16.70
2023-04-02T05:25:37.622Z,16.80
2023-04-02T05:26:45.224Z,16.90
2023-04-02T05:28:00.532Z,17.00
2023-04-02T05:29:20.746Z,17.10
2023-04-02T05:30:23.387Z,17.20
2023-04-02T05:31:44.475Z,17.30
2023-04-02T05:33:10.349Z,17.60
2023-04-02T05:34:14.535Z,17.90
2023-04-02T05:35:20.046Z,18.20
2023-04-02T05:36:27.038Z,18.30
2023-04-02T05:37:33.633Z,18.50
2023-04-02T05:38:39.852Z,18.60
2023-04-02T05:39:45.557Z,18.70
2023-04-02T05:40:58.240Z,18.80
2023-04-02T05:42:21.145Z,18.90
2023-04-02T05:43:32.177Z,19.00
2023-04-02T05:44:41.694Z,19.10
2023-04-02T05:45:51.777Z,19.10
2023-04-02T05:47:04.916Z,19.20
2023-04-02T05:48:25.307Z,19.30
2023-04-02T05:49:39.419Z,19.30
2023-04-02T05:50:51.480Z,19.40
2023-04-02T05:52:03.269Z,19.40
2023-04-02T05:53:23.353Z,19.40
2023-04-02T05:54:32.967Z,19.40
2023-04-02T05:55:59.642Z,18.90
2023-04-02T05:57:24.941Z,18.30
2023-04-02T05:59:03.684Z,18.20
2023-04-02T06:00:18.178Z,18.50
2023-04-02T06:01:42.917Z,18.80
2023-04-02T06:02:59.877Z,18.90
2023-04-02T06:04:18.706Z,19.10
2023-04-02T06:05:25.960Z,19.20
2023-04-02T06:06:41.618Z,19.30
2023-04-02T06:07:53.503Z,19.30
2023-04-02T06:09:05.999Z,19.30
2023-04-02T06:10:11.877Z,19.40
2023-04-02T06:11:32.768Z,19.40
2023-04-02T06:12:51.339Z,19.40
2023-04-02T06:13:55.424Z,19.50
2023-04-02T06:14:59.543Z,19.50
2023-04-02T06:16:06.921Z,19.60
2023-04-02T06:17:14.905Z,19.60
2023-04-02T06:18:21.294Z,19.60
2023-04-02T06:19:32.935Z,19.60
2023-04-02T06:20:35.817Z,19.60
2023-04-02T06:21:45.356Z,19.70
2023-04-02T06:22:52.878Z,19.80
2023-04-02T06:24:04.449Z,19.80
2023-04-02T06:25:22.743Z,19.80
2023-04-02T06:26:35.392Z,19.80
2023-04-02T06:27:40.087Z,19.80
2023-04-02T06:29:07.975Z,19.80
2023-04-02T06:30:20.589Z,19.90
2023-04-02T06:31:28.711Z,19.90
2023-04-02T06:32:31.854Z,19.90
2023-04-02T06:33:34.322Z,19.90
2023-04-02T06:34:39.408Z,19.90
2023-04-02T06:35:47.314Z,19.90
2023-04-02T06:36:56.410Z,19.90
2023-04-02T06:38:04.085Z,19.90
2023-04-02T06:39:17.033Z,19.90
2023-04-02T06:40:31.686Z,19.90
2023-04-02T06:41:36.499Z,19.90
2023-04-02T06:43:07.887Z,20.00
2023-04-02T06:44:36.929Z,19.90
2023-04-02T06:46:00.802Z,20.00
2023-04-02T06:47:36.370Z,20.00
2023-04-02T06:48:40.884Z,20.00
2023-04-02T06:49:51.342Z,20.00
2023-04-02T06:51:03.930Z,20.00
2023-04-02T06:52:16.079Z,20.00
2023-04-02T06:53:33.037Z,20.00
2023-04-02T06:54:36.636Z,20.00
2023-04-02T06:55:58.901Z,20.00
2023-04-02T06:57:07.085Z,20.00
2023-04-02T06:58:15.449Z,20.00
2023-04-02T06:59:18.690Z,20.10
2023-04-02T07:00:31.529Z,20.00
2023-04-02T07:01:49.679Z,20.00
2023-04-02T07:02:55.290Z,20.10
2023-04-02T07:03:59.483Z,20.00
2023-04-02T07:05:12.918Z,20.10
2023-04-02T07:06:22.080Z,20.10
2023-04-02T07:07:26.499Z,20.00
2023-04-02T07:08:28.949Z,20.00
2023-04-02T07:09:32.280Z,19.70
2023-04-02T07:10:37.554Z,19.20
2023-04-02T07:11:40.105Z,19.00
2023-04-02T07:12:43.791Z,19.10
2023-04-02T07:13:48.276Z,19.20
2023-04-02T07:14:51.198Z,19.40
2023-04-02T07:15:55.718Z,19.50
2023-04-02T07:17:00.909Z,19.60
2023-04-02T07:18:03.694Z,19.70
2023-04-02T07:19:06.344Z,19.80
2023-04-02T07:20:41.692Z,19.90
2023-04-02T07:21:47.869Z,20.00
2023-04-02T07:22:50.768Z,20.00
2023-04-02T07:23:54.154Z,20.00
2023-04-02T07:24:56.707Z,20.10
2023-04-02T07:25:59.489Z,20.10
2023-04-02T07:27:02.242Z,20.10
2023-04-02T07:28:05.048Z,20.10
2023-04-02T07:29:08.639Z,20.10
2023-04-02T07:30:11.301Z,20.10
2023-04-02T07:31:27.465Z,20.10
2023-04-02T07:32:30.146Z,20.10
2023-04-02T07:33:32.560Z,20.10
2023-04-02T07:34:34.959Z,20.10
2023-04-02T07:35:37.588Z,20.10
2023-04-02T07:36:40.708Z,20.10
2023-04-02T07:37:43.133Z,20.10
2023-04-02T07:38:45.918Z,20.10
2023-04-02T07:39:48.397Z,20.10
2023-04-02T07:40:50.923Z,20.10
2023-04-02T07:42:02.587Z,20.10
2023-04-02T07:43:06.130Z,20.20
2023-04-02T07:44:10.905Z,19.80
2023-04-02T07:45:13.811Z,19.50
2023-04-02T07:46:18.047Z,19.40
2023-04-02T07:47:20.771Z,19.30
2023-04-02T07:48:23.368Z,19.20
2023-04-02T07:49:25.809Z,19.10
2023-04-02T07:50:28.190Z,19.00
2023-04-02T07:51:30.528Z,19.00
2023-04-02T07:52:32.952Z,18.90
2023-04-02T07:53:40.432Z,18.90
2023-04-02T07:54:43.847Z,19.10
2023-04-02T07:55:46.181Z,19.40
2023-04-02T07:56:48.652Z,19.40
2023-04-02T07:57:56.052Z,19.50
2023-04-02T07:58:58.441Z,19.70
2023-04-02T08:00:00.944Z,19.80
2023-04-02T08:01:05.401Z,19.90
2023-04-02T08:02:21.732Z,19.90
2023-04-02T08:03:25.116Z,19.90
2023-04-02T08:04:27.535Z,20.00
2023-04-02T08:05:29.938Z,20.00
2023-04-02T08:06:32.377Z,20.00
2023-04-02T08:07:35.440Z,20.00
2023-04-02T08:08:39.891Z,20.00
2023-04-02T08:09:42.388Z,20.00
2023-04-02T08:10:44.942Z,20.10
2023-04-02T08:11:47.355Z,20.10
2023-04-02T08:12:50.139Z,20.10
2023-04-02T08:13:53.237Z,20.10
2023-04-02T08:14:56.041Z,20.10
2023-04-02T08:15:59.734Z,20.10
2023-04-02T08:17:03.341Z,20.20
2023-04-02T08:18:05.958Z,20.20
2023-04-02T08:19:08.396Z,20.20
2023-04-02T08:20:19.734Z,20.20
2023-04-02T08:21:22.971Z,20.20
2023-04-02T08:22:25.544Z,20.10
2023-04-02T08:23:28.223Z,20.20
2023-04-02T08:24:30.675Z,20.10
2023-04-02T08:25:33.435Z,20.00
2023-04-02T08:26:36.467Z,19.40
2023-04-02T08:27:39.136Z,19.00
2023-04-02T08:28:41.883Z,19.00
2023-04-02T08:29:44.284Z,19.20
2023-04-02T08:30:48.906Z,19.40
2023-04-02T08:31:51.658Z,19.60
2023-04-02T08:32:54.084Z,19.80
2023-04-02T08:33:56.984Z,19.90
2023-04-02T08:34:59.456Z,19.70
2023-04-02T08:36:02.725Z,19.80
2023-04-02T08:37:05.273Z,19.80
2023-04-02T08:38:07.762Z,19.90
2023-04-02T08:39:13.426Z,20.00
2023-04-02T08:40:22.274Z,20.10
2023-04-02T08:41:30.989Z,20.10
2023-04-02T08:42:40.279Z,20.10
2023-04-02T08:44:00.836Z,20.20
2023-04-02T08:45:27.784Z,20.10
2023-04-02T08:47:01.338Z,20.20
2023-04-02T08:48:09.945Z,20.20
2023-04-02T08:49:16.645Z,20.30
2023-04-02T08:50:35.447Z,20.30
2023-04-02T08:51:38.086Z,20.30
2023-04-02T08:52:40.862Z,20.30
2023-04-02T08:53:43.277Z,20.20
2023-04-02T08:54:45.736Z,20.30
2023-04-02T08:56:17.791Z,20.30
2023-04-02T08:57:58.830Z,20.30
2023-04-02T08:59:08.126Z,20.30
2023-04-02T09:00:26.142Z,20.30
2023-04-02T09:01:47.298Z,20.30
2023-04-02T09:02:56.254Z,20.30
2023-04-02T09:03:59.506Z,20.30
2023-04-02T09:05:06.070Z,20.30
2023-04-02T09:06:16.702Z,20.30
2023-04-02T09:07:19.236Z,20.30
2023-04-02T09:08:27.203Z,20.30
2023-04-02T09:09:33.617Z,20.40
2023-04-02T09:10:41.648Z,20.40
2023-04-02T09:12:10.454Z,20.40
2023-04-02T09:13:22.654Z,20.40
2023-04-02T09:14:43.053Z,20.40
2023-04-02T09:15:46.166Z,20.20
2023-04-02T09:16:54.116Z,20.00
2023-04-02T09:18:04.305Z,19.90
2023-04-02T09:19:23.366Z,19.80
2023-04-02T09:20:29.669Z,19.80
2023-04-02T09:21:41.364Z,19.70
2023-04-02T09:22:50.914Z,19.70
2023-04-02T09:23:53.268Z,19.60
2023-04-02T09:25:01.121Z,19.60
2023-04-02T09:26:24.575Z,19.60
2023-04-02T09:27:33.148Z,19.50
2023-04-02T09:28:39.389Z,19.40
2023-04-02T09:29:47.435Z,19.40
2023-04-02T09:31:16.817Z,19.40
2023-04-02T09:32:30.208Z,19.50
2023-04-02T09:33:44.272Z,19.60
2023-04-02T09:34:46.779Z,19.80
2023-04-02T09:35:51.854Z,19.90
2023-04-02T09:36:54.430Z,20.10
2023-04-02T09:38:20.295Z,20.20
2023-04-02T09:39:25.777Z,20.30
2023-04-02T09:40:32.111Z,20.30
2023-04-02T09:41:37.015Z,20.40
2023-04-02T09:42:40.727Z,20.40
2023-04-02T09:43:42.979Z,20.40
2023-04-02T09:44:45.832Z,20.40
2023-04-02T09:46:02.147Z,20.40
2023-04-02T09:47:07.711Z,20.50
2023-04-02T09:48:21.477Z,20.50
2023-04-02T09:49:26.809Z,20.40
2023-04-02T09:50:32.870Z,20.50
2023-04-02T09:51:36.476Z,20.40
2023-04-02T09:52:38.953Z,20.50
2023-04-02T09:53:49.427Z,20.50
2023-04-02T09:55:22.044Z,20.50
2023-04-02T09:56:26.790Z,20.50
2023-04-02T09:57:30.615Z,20.50
2023-04-02T09:58:33.031Z,20.50
2023-04-02T09:59:35.430Z,20.50
2023-04-02T10:00:42.073Z,20.50
2023-04-02T10:01:56.979Z,20.50
2023-04-02T10:03:23.235Z,20.50
2023-04-02T10:04:43.880Z,20.50
2023-04-02T10:05:47.572Z,20.50
2023-04-02T10:06:51.812Z,20.50
2023-04-02T10:08:01.253Z,20.50
2023-04-02T10:09:27.613Z,20.50
2023-04-02T10:10:42.664Z,20.60
2023-04-02T10:11:46.976Z,20.60
2023-04-02T10:12:57.648Z,20.60
2023-04-02T10:14:38.132Z,20.60
2023-04-02T10:16:06.276Z,20.60
2023-04-02T10:17:22.427Z,20.60
2023-04-02T10:18:44.628Z,20.70
2023-04-02T10:20:00.779Z,20.70
2023-04-02T10:21:04.457Z,20.70
2023-04-02T10:22:16.501Z,20.70
2023-04-02T10:23:19.515Z,20.60
2023-04-02T10:24:21.900Z,20.60
2023-04-02T10:25:31.117Z,20.60
2023-04-02T10:26:46.674Z,20.60
2023-04-02T10:28:02.193Z,20.70
2023-04-02T10:29:23.090Z,20.60
2023-04-02T10:30:53.180Z,20.70
2023-04-02T10:32:38.029Z,20.60
2023-04-02T10:33:44.493Z,20.70
2023-04-02T10:35:26.096Z,20.70
2023-04-02T10:36:37.687Z,20.60
2023-04-02T10:37:46.761Z,20.70
2023-04-02T10:39:02.563Z,20.70
2023-04-02T10:40:26.631Z,20.80
2023-04-02T10:42:00.308Z,20.80
2023-04-02T10:43:28.729Z,20.40
2023-04-02T10:44:49.325Z,19.90
2023-04-02T10:46:01.034Z,19.60
2023-04-02T10:47:31.292Z,19.40
2023-04-02T10:48:52.756Z,19.30
2023-04-02T10:50:03.999Z,19.20
2023-04-02T10:51:21.274Z,19.10
2023-04-02T10:52:33.057Z,19.00
2023-04-02T10:53:41.062Z,18.90
2023-04-02T10:54:48.835Z,18.90
2023-04-02T10:56:12.502Z,18.80
2023-04-02T10:57:30.641Z,18.60
2023-04-02T10:58:39.604Z,18.60
2023-04-02T11:00:17.108Z,18.70
2023-04-02T11:01:40.920Z,18.80
2023-04-02T11:03:09.654Z,18.80
2023-04-02T11:04:19.180Z,18.70
2023-04-02T11:05:46.725Z,18.80
2023-04-02T11:07:07.279Z,18.70
2023-04-02T11:08:39.735Z,18.70
2023-04-02T11:09:47.145Z,18.70
2023-04-02T11:11:15.010Z,18.60
2023-04-02T11:12:27.547Z,18.60
2023-04-02T11:13:41.971Z,18.50
2023-04-02T11:14:45.244Z,18.50
2023-04-02T11:15:47.874Z,18.50
2023-04-02T11:16:51.793Z,18.40
2023-04-02T11:17:54.812Z,18.50
2023-04-02T11:19:15.628Z,18.40
2023-04-02T11:20:49.088Z,18.40
2023-04-02T11:21:59.506Z,18.40
2023-04-02T11:23:13.034Z,18.30
2023-04-02T11:24:32.894Z,18.40
2023-04-02T11:25:36.025Z,18.40
2023-04-02T11:26:46.376Z,18.40
2023-04-02T11:27:48.894Z,18.30
2023-04-02T11:29:06.398Z,18.20
2023-04-02T11:30:24.270Z,18.20
2023-04-02T11:31:26.635Z,18.20
2023-04-02T11:32:34.949Z,18.30
2023-04-02T11:33:46.038Z,18.30
2023-04-02T11:35:03.055Z,18.30
2023-04-02T11:36:45.622Z,18.20
2023-04-02T11:37:48.001Z,18.10
2023-04-02T11:38:52.529Z,18.20
2023-04-02T11:39:59.855Z,18.10
2023-04-02T11:41:02.381Z,18.20
2023-04-02T11:42:25.107Z,18.10
2023-04-02T11:43:33.723Z,18.20
2023-04-02T11:44:36.157Z,18.20
2023-04-02T11:45:52.920Z,18.20
2023-04-02T11:47:19.352Z,18.20
2023-04-02T11:48:21.845Z,18.20
2023-04-02T11:49:39.570Z,18.20
2023-04-02T11:50:44.244Z,18.30
2023-04-02T11:51:54.380Z,18.30
2023-04-02T11:53:11.870Z,18.30
2023-04-02T11:54:26.184Z,18.40
2023-04-02T11:55:33.649Z,18.30
2023-04-02T11:56:48.135Z,18.30
2023-04-02T11:58:17.201Z,18.30
2023-04-02T11:59:30.709Z,18.40
2023-04-02T12:00:48.436Z,18.50
2023-04-02T12:01:57.370Z,18.60
2023-04-02T12:03:38.505Z,18.50
2023-04-02T12:04:40.911Z,18.40
2023-04-02T12:05:54.559Z,18.40
2023-04-02T12:07:10.563Z,18.50
2023-04-02T12:08:25.362Z,18.70
2023-04-02T12:09:32.905Z,18.60
2023-04-02T12:10:58.952Z,18.60
2023-04-02T12:12:18.198Z,18.70
2023-04-02T12:13:41.599Z,18.70
2023-04-02T12:14:53.027Z,18.60
2023-04-02T12:15:57.980Z,18.60
2023-04-02T12:17:04.616Z,18.60
2023-04-02T12:18:20.694Z,18.50
2023-04-02T12:19:24.147Z,18.60
2023-04-02T12:20:30.566Z,18.60
2023-04-02T12:21:32.878Z,18.70
2023-04-02T12:22:38.949Z,18.70
2023-04-02T12:23:44.771Z,18.70
2023-04-02T12:24:48.381Z,18.60
2023-04-02T12:26:01.948Z,18.70
2023-04-02T12:27:15.476Z,18.70
2023-04-02T12:28:18.585Z,18.80
2023-04-02T12:29:26.123Z,18.90
2023-04-02T12:30:28.818Z,18.80
2023-04-02T12:31:33.454Z,18.90
2023-04-02T12:32:36.257Z,18.80
2023-04-02T12:33:40.244Z,18.80
2023-04-02T12:34:46.353Z,18.80
2023-04-02T12:35:51.160Z,18.70
2023-04-02T12:37:04.900Z,18.70
2023-04-02T12:38:19.829Z,18.60
2023-04-02T12:39:22.596Z,18.70
2023-04-02T12:40:26.272Z,18.80
2023-04-02T12:41:30.842Z,18.90
2023-04-02T12:42:37.536Z,18.90
2023-04-02T12:43:40.074Z,18.90
2023-04-02T12:44:49.016Z,18.80
2023-04-02T12:45:53.519Z,18.80
2023-04-02T12:46:57.306Z,18.70
2023-04-02T12:48:02.555Z,18.70
2023-04-02T12:49:20.666Z,18.70
2023-04-02T12:50:23.740Z,18.70
2023-04-02T12:51:28.358Z,18.80
2023-04-02T12:52:30.950Z,18.80
2023-04-02T12:53:38.638Z,18.80
2023-04-02T12:55:02.579Z,18.80
2023-04-02T12:56:05.600Z,18.80
2023-04-02T12:57:23.041Z,18.80
2023-04-02T12:58:30.236Z,18.90
2023-04-02T12:59:39.019Z,19.00
2023-04-02T13:00:41.658Z,19.00
2023-04-02T13:01:59.921Z,19.20
2023-04-02T13:03:16.927Z,19.20
2023-04-02T13:04:19.782Z,19.10
2023-04-02T13:05:44.557Z,19.10
2023-04-02T13:06:52.343Z,19.00
2023-04-02T13:07:54.686Z,19.00
2023-04-02T13:08:57.486Z,19.00
2023-04-02T13:10:25.504Z,19.00
2023-04-02T13:11:38.839Z,18.90
2023-04-02T13:12:41.925Z,18.50
2023-04-02T13:13:46.360Z,18.50
2023-04-02T13:14:53.601Z,18.50
2023-04-02T13:16:26.976Z,18.40
2023-04-02T13:17:47.742Z,18.40
2023-04-02T13:18:51.004Z,18.20
2023-04-02T13:19:53.418Z,18.20
2023-04-02T13:21:07.025Z,18.30
2023-04-02T13:22:30.884Z,18.30
2023-04-02T13:23:36.544Z,18.50
2023-04-02T13:24:41.247Z,18.80
2023-04-02T13:25:43.895Z,19.00
2023-04-02T13:26:49.210Z,19.10
2023-04-02T13:27:51.600Z,19.30
2023-04-02T13:29:17.634Z,19.40
2023-04-02T13:30:23.857Z,19.50
2023-04-02T13:31:26.934Z,19.70
2023-04-02T13:32:31.262Z,19.70
2023-04-02T13:33:33.625Z,19.70
2023-04-02T13:34:36.092Z,19.80
2023-04-02T13:35:38.538Z,19.80
2023-04-02T13:36:41.485Z,19.90
2023-04-02T13:37:44.159Z,19.90
2023-04-02T13:38:46.628Z,19.90
2023-04-02T13:39:49.462Z,19.90
2023-04-02T13:40:51.923Z,19.90
2023-04-02T13:42:03.391Z,20.00
2023-04-02T13:43:08.052Z,20.00
2023-04-02T13:44:22.944Z,20.00
2023-04-02T13:45:29.844Z,20.10
2023-04-02T13:46:34.751Z,20.10
2023-04-02T13:47:39.064Z,20.20
2023-04-02T13:48:42.920Z,20.10
2023-04-02T13:49:45.525Z,20.10
2023-04-02T13:50:47.994Z,20.10
2023-04-02T13:51:52.881Z,20.20
2023-04-02T13:52:58.784Z,20.20
2023-04-02T13:54:01.394Z,20.20
2023-04-02T13:55:06.209Z,20.20
2023-04-02T13:56:08.588Z,20.20
2023-04-02T13:57:11.440Z,20.20
2023-04-02T13:58:16.747Z,20.20
2023-04-02T13:59:19.428Z,20.20
2023-04-02T14:00:21.781Z,20.30
2023-04-02T14:01:25.228Z,20.30
2023-04-02T14:02:28.322Z,20.30
2023-04-02T14:03:30.875Z,20.30
2023-04-02T14:04:37.476Z,20.30
2023-04-02T14:05:46.685Z,20.40
2023-04-02T14:07:21.698Z,20.40
2023-04-02T14:08:48.051Z,20.50
2023-04-02T14:10:20.315Z,20.40
2023-04-02T14:11:40.701Z,20.40
2023-04-02T14:12:48.910Z,20.40
2023-04-02T14:14:05.493Z,20.40
2023-04-02T14:15:38.687Z,20.30
2023-04-02T14:17:16.222Z,20.40
2023-04-02T14:18:55.754Z,20.40
2023-04-02T14:20:08.655Z,20.40
2023-04-02T14:21:13.840Z,20.50
2023-04-02T14:22:49.901Z,20.50
2023-04-02T14:24:06.187Z,20.50
2023-04-02T14:25:49.841Z,20.50
2023-04-02T14:27:30.813Z,20.50
2023-04-02T14:28:57.706Z,20.50
2023-04-02T14:30:31.937Z,20.40
2023-04-02T14:31:44.430Z,20.50
2023-04-02T14:33:05.407Z,20.50
2023-04-02T14:34:31.630Z,20.40
2023-04-02T14:35:46.958Z,20.40
2023-04-02T14:36:57.741Z,20.40
2023-04-02T14:38:17.409Z,20.40
2023-04-02T14:39:29.312Z,20.40
2023-04-02T14:40:37.575Z,20.40
2023-04-02T14:41:45.573Z,20.40
2023-04-02T14:43:02.129Z,20.50
2023-04-02T14:44:08.145Z,20.50
2023-04-02T14:45:27.318Z,20.50
2023-04-02T14:46:34.840Z,20.50
2023-04-02T14:47:54.390Z,20.40
2023-04-02T14:49:26.455Z,20.50
2023-04-02T14:50:39.120Z,20.50
2023-04-02T14:51:49.857Z,20.50
2023-04-02T14:52:57.089Z,20.50
2023-04-02T14:54:14.280Z,20.50
2023-04-02T14:55:43.758Z,20.50
2023-04-02T14:57:23.045Z,20.50
2023-04-02T14:58:33.167Z,20.50
2023-04-02T14:59:53.415Z,20.50
2023-04-02T15:01:04.882Z,20.50
2023-04-02T15:02:45.499Z,20.50
2023-04-02T15:04:04.594Z,20.50
2023-04-02T15:05:21.176Z,20.60
2023-04-02T15:06:27.878Z,20.50
2023-04-02T15:08:01.518Z,20.50
2023-04-02T15:09:11.814Z,20.50
2023-04-02T15:10:26.210Z,20.40
2023-04-02T15:11:39.630Z,20.30
2023-04-02T15:12:45.085Z,20.40
2023-04-02T15:14:36.876Z,20.50
2023-04-02T15:15:54.222Z,20.50
2023-04-02T15:16:57.498Z,20.50
2023-04-02T15:18:02.001Z,20.50
2023-04-02T15:19:12.777Z,20.50
2023-04-02T15:20:17.423Z,20.60
2023-04-02T15:21:19.887Z,20.50
2023-04-02T15:22:39.219Z,20.60
2023-04-02T15:24:03.106Z,20.50
2023-04-02T15:25:13.258Z,20.50
2023-04-02T15:26:48.822Z,20.50
2023-04-02T15:28:03.587Z,20.50
2023-04-02T15:29:29.261Z,20.60